Terminal Aerodrome Forecast
Issued by NWS

Home | Current Version | Previous Version | Text Only | Print | Product List | Glossary On
Versions: 1 2 3 4 5 6 7 8 9 10 11 12 13 14 15 16 17 18 19 20 21 22 23 24 25 26 27 28 29 30 31 32 33
000
FTUS43 KDLH 250631 AAA
TAFHIB
TAF AMD
KHIB 250631Z 2507/2606 11005KT P6SM OVC009
     FM250800 11004KT P6SM BKN017 OVC030
     FM251400 12008KT P6SM BKN018
     FM251600 11010G16KT P6SM BKN020
     FM260200 12006KT P6SM OVC022=

USA.gov is the U.S. government's official web portal to all federal, state and local government web resources and services.